sensor_id;sensor_type;location;lat;lon;timestamp;pressure;altitude;pressure_sealevel;temperature;humidity
56414;BME280;42318;48.452;19.526;2023-11-22T00:01:29;98050.13;;;18.92;61.11
56414;BME280;42318;48.452;19.526;2023-11-22T00:04:30;98053.91;;;18.91;61.26
56414;BME280;42318;48.452;19.526;2023-11-22T00:07:34;98058.25;;;18.92;61.46
56414;BME280;42318;48.452;19.526;2023-11-22T00:10:34;98062.06;;;18.91;61.40
56414;BME280;42318;48.452;19.526;2023-11-22T00:13:35;98063.69;;;18.92;61.22
56414;BME280;42318;48.452;19.526;2023-11-22T00:16:36;98068.31;;;18.92;61.37
56414;BME280;42318;48.452;19.526;2023-11-22T00:19:37;98070.19;;;18.91;61.50
56414;BME280;42318;48.452;19.526;2023-11-22T00:22:38;98077.53;;;18.91;61.06
56414;BME280;42318;48.452;19.526;2023-11-22T00:25:39;98082.66;;;18.87;61.70
56414;BME280;42318;48.452;19.526;2023-11-22T00:28:40;98066.09;;;18.89;61.52
56414;BME280;42318;48.452;19.526;2023-11-22T00:31:40;98063.38;;;18.89;61.35
56414;BME280;42318;48.452;19.526;2023-11-22T00:34:41;98066.38;;;18.87;61.35
56414;BME280;42318;48.452;19.526;2023-11-22T00:37:41;98082.66;;;18.87;61.35
56414;BME280;42318;48.452;19.526;2023-11-22T00:40:42;98079.94;;;18.87;61.11
56414;BME280;42318;48.452;19.526;2023-11-22T00:43:43;98071.78;;;18.87;60.95
56414;BME280;42318;48.452;19.526;2023-11-22T00:46:43;98084.28;;;18.88;61.28
56414;BME280;42318;48.452;19.526;2023-11-22T00:49:45;98088.09;;;18.87;61.13
56414;BME280;42318;48.452;19.526;2023-11-22T00:52:47;98086.19;;;18.88;61.29
56414;BME280;42318;48.452;19.526;2023-11-22T00:55:48;98082.09;;;18.85;61.44
56414;BME280;42318;48.452;19.526;2023-11-22T00:58:48;98081.53;;;18.83;61.50
56414;BME280;42318;48.452;19.526;2023-11-22T01:01:50;98086.44;;;18.86;60.90
56414;BME280;42318;48.452;19.526;2023-11-22T01:04:50;98085.63;;;18.86;61.16
56414;BME280;42318;48.452;19.526;2023-11-22T01:07:51;98092.69;;;18.87;61.17
56414;BME280;42318;48.452;19.526;2023-11-22T01:10:52;98085.31;;;18.82;60.96
56414;BME280;42318;48.452;19.526;2023-11-22T01:13:52;98091.31;;;18.84;61.32
56414;BME280;42318;48.452;19.526;2023-11-22T01:16:53;98095.66;;;18.85;61.39
56414;BME280;42318;48.452;19.526;2023-11-22T01:19:56;98090.22;;;18.85;61.07
56414;BME280;42318;48.452;19.526;2023-11-22T01:22:59;98083.97;;;18.85;61.20
56414;BME280;42318;48.452;19.526;2023-11-22T01:25:59;98088.34;;;18.86;61.36
56414;BME280;42318;48.452;19.526;2023-11-22T01:29:00;98084.81;;;18.85;60.99
56414;BME280;42318;48.452;19.526;2023-11-22T01:32:02;98082.09;;;18.85;61.26
56414;BME280;42318;48.452;19.526;2023-11-22T01:35:03;98088.59;;;18.84;60.99
56414;BME280;42318;48.452;19.526;2023-11-22T01:38:06;98086.91;;;18.78;61.17
56414;BME280;42318;48.452;19.526;2023-11-22T01:41:07;98092.38;;;18.83;61.10
56414;BME280;42318;48.452;19.526;2023-11-22T01:44:08;98097.56;;;18.85;61.00
56414;BME280;42318;48.452;19.526;2023-11-22T01:47:09;98098.38;;;18.85;61.15
56414;BME280;42318;48.452;19.526;2023-11-22T01:50:10;98094.03;;;18.84;61.35
56414;BME280;42318;48.452;19.526;2023-11-22T01:53:12;98099.44;;;18.84;61.10
56414;BME280;42318;48.452;19.526;2023-11-22T01:56:13;98095.09;;;18.83;61.27
56414;BME280;42318;48.452;19.526;2023-11-22T01:59:14;98103.50;;;18.81;61.17
56414;BME280;42318;48.452;19.526;2023-11-22T02:02:14;98107.59;;;18.84;61.39
56414;BME280;42318;48.452;19.526;2023-11-22T02:05:15;98104.06;;;18.83;61.23
56414;BME280;42318;48.452;19.526;2023-11-22T02:08:16;98099.72;;;18.82;61.02
56414;BME280;42318;48.452;19.526;2023-11-22T02:11:18;98097.25;;;18.81;61.11
56414;BME280;42318;48.452;19.526;2023-11-22T02:14:22;98105.97;;;18.83;61.27
56414;BME280;42318;48.452;19.526;2023-11-22T02:17:23;98121.44;;;18.82;60.95
56414;BME280;42318;48.452;19.526;2023-11-22T02:20:23;98123.06;;;18.83;61.26
56414;BME280;42318;48.452;19.526;2023-11-22T02:23:24;98126.03;;;18.82;61.25
56414;BME280;42318;48.452;19.526;2023-11-22T02:26:25;98111.34;;;18.78;61.06
56414;BME280;42318;48.452;19.526;2023-11-22T02:29:25;98111.59;;;18.76;60.88
56414;BME280;42318;48.452;19.526;2023-11-22T02:32:26;98117.91;;;18.82;61.25
56414;BME280;42318;48.452;19.526;2023-11-22T02:35:28;98124.91;;;18.78;61.06
56414;BME280;42318;48.452;19.526;2023-11-22T02:38:29;98127.13;;;18.81;60.64
56414;BME280;42318;48.452;19.526;2023-11-22T02:41:30;98134.44;;;18.80;61.04
56414;BME280;42318;48.452;19.526;2023-11-22T02:44:30;98130.66;;;18.81;61.06
56414;BME280;42318;48.452;19.526;2023-11-22T02:47:32;98148.56;;;18.82;61.02
56414;BME280;42318;48.452;19.526;2023-11-22T02:50:32;98146.94;;;18.81;61.15
56414;BME280;42318;48.452;19.526;2023-11-22T02:53:34;98142.59;;;18.80;60.67
56414;BME280;42318;48.452;19.526;2023-11-22T02:56:35;98135.72;;;18.73;61.12
56414;BME280;42318;48.452;19.526;2023-11-22T02:59:36;98151.81;;;18.79;60.99
56414;BME280;42318;48.452;19.526;2023-11-22T03:02:36;98148.00;;;18.80;61.20
56414;BME280;42318;48.452;19.526;2023-11-22T03:05:37;98159.69;;;18.81;60.94
56414;BME280;42318;48.452;19.526;2023-11-22T03:08:38;98155.78;;;18.72;60.80
56414;BME280;42318;48.452;19.526;2023-11-22T03:11:39;98174.34;;;18.80;60.81
56414;BME280;42318;48.452;19.526;2023-11-22T03:14:39;98171.38;;;18.81;60.78
56414;BME280;42318;48.452;19.526;2023-11-22T03:17:40;98165.13;;;18.81;60.80
56414;BME280;42318;48.452;19.526;2023-11-22T03:20:41;98172.44;;;18.80;60.91
56414;BME280;42318;48.452;19.526;2023-11-22T03:23:43;98181.41;;;18.81;60.77
56414;BME280;42318;48.452;19.526;2023-11-22T03:26:44;98191.44;;;18.80;61.03
56414;BME280;42318;48.452;19.526;2023-11-22T03:29:45;98189.53;;;18.81;61.13
56414;BME280;42318;48.452;19.526;2023-11-22T03:32:46;98187.91;;;18.80;60.99
56414;BME280;42318;48.452;19.526;2023-11-22T03:35:47;98188.97;;;18.79;60.88
56414;BME280;42318;48.452;19.526;2023-11-22T03:38:47;98190.63;;;18.80;61.04
56414;BME280;42318;48.452;19.526;2023-11-22T03:41:48;98193.34;;;18.80;60.85
56414;BME280;42318;48.452;19.526;2023-11-22T03:44:50;98191.44;;;18.80;61.21
56414;BME280;42318;48.452;19.526;2023-11-22T03:47:51;98200.41;;;18.81;61.16
56414;BME280;42318;48.452;19.526;2023-11-22T03:50:51;98202.28;;;18.80;60.73
56414;BME280;42318;48.452;19.526;2023-11-22T03:53:52;98207.97;;;18.79;60.79
56414;BME280;42318;48.452;19.526;2023-11-22T03:56:53;98215.06;;;18.80;61.06
56414;BME280;42318;48.452;19.526;2023-11-22T03:59:54;98216.94;;;18.79;61.14
56414;BME280;42318;48.452;19.526;2023-11-22T04:02:54;98227.53;;;18.81;60.69
56414;BME280;42318;48.452;19.526;2023-11-22T04:05:57;98218.84;;;18.79;60.99
56414;BME280;42318;48.452;19.526;2023-11-22T04:08:58;98221.56;;;18.79;61.04
56414;BME280;42318;48.452;19.526;2023-11-22T04:11:59;98225.34;;;18.78;60.69
56414;BME280;42318;48.452;19.526;2023-11-22T04:14:59;98229.69;;;18.79;60.78
56414;BME280;42318;48.452;19.526;2023-11-22T04:18:00;98225.91;;;18.80;60.75
56414;BME280;42318;48.452;19.526;2023-11-22T04:21:01;98226.97;;;18.79;60.47
56414;BME280;42318;48.452;19.526;2023-11-22T04:24:03;98233.47;;;18.78;60.78
56414;BME280;42318;48.452;19.526;2023-11-22T04:27:04;98231.59;;;18.78;60.74
56414;BME280;42318;48.452;19.526;2023-11-22T04:30:08;98224.25;;;18.79;60.83
56414;BME280;42318;48.452;19.526;2023-11-22T04:33:13;98221.34;;;18.64;60.58
56414;BME280;42318;48.452;19.526;2023-11-22T04:36:14;98241.06;;;18.76;60.84
56414;BME280;42318;48.452;19.526;2023-11-22T04:39:14;98245.16;;;18.78;60.75
56414;BME280;42318;48.452;19.526;2023-11-22T04:42:16;98244.34;;;18.78;60.56
56414;BME280;42318;48.452;19.526;2023-11-22T04:45:16;98252.47;;;18.78;60.84
56414;BME280;42318;48.452;19.526;2023-11-22T04:48:17;98250.78;;;18.72;60.47
56414;BME280;42318;48.452;19.526;2023-11-22T04:51:17;98262.53;;;18.77;60.84
56414;BME280;42318;48.452;19.526;2023-11-22T04:54:18;98264.41;;;18.77;60.97
56414;BME280;42318;48.452;19.526;2023-11-22T04:57:19;98271.75;;;18.76;60.84
56414;BME280;42318;48.452;19.526;2023-11-22T05:00:21;98276.34;;;18.76;60.56
56414;BME280;42318;48.452;19.526;2023-11-22T05:03:23;98276.09;;;18.77;60.72
56414;BME280;42318;48.452;19.526;2023-11-22T05:06:24;98273.88;;;18.74;60.77
56414;BME280;42318;48.452;19.526;2023-11-22T05:09:26;98277.41;;;18.75;60.57
56414;BME280;42318;48.452;19.526;2023-11-22T05:12:27;98280.94;;;18.75;60.70
56414;BME280;42318;48.452;19.526;2023-11-22T05:15:27;98270.84;;;18.71;60.55
56414;BME280;42318;48.452;19.526;2023-11-22T05:18:28;98280.13;;;18.75;60.50
56414;BME280;42318;48.452;19.526;2023-11-22T05:21:28;98282.03;;;18.74;60.63
56414;BME280;42318;48.452;19.526;2023-11-22T05:24:29;98286.13;;;18.77;60.70
56414;BME280;42318;48.452;19.526;2023-11-22T05:27:30;98284.75;;;18.74;60.47
56414;BME280;42318;48.452;19.526;2023-11-22T05:30:33;98301.03;;;18.74;60.66
56414;BME280;42318;48.452;19.526;2023-11-22T05:33:34;98301.84;;;18.75;60.35
56414;BME280;42318;48.452;19.526;2023-11-22T05:36:35;98300.19;;;18.74;60.64
56414;BME280;42318;48.452;19.526;2023-11-22T05:39:35;98308.91;;;18.76;60.46
56414;BME280;42318;48.452;19.526;2023-11-22T05:42:37;98312.13;;;18.73;60.45
56414;BME280;42318;48.452;19.526;2023-11-22T05:45:37;98314.59;;;18.74;60.67
56414;BME280;42318;48.452;19.526;2023-11-22T05:48:38;98328.16;;;18.74;60.50
56414;BME280;42318;48.452;19.526;2023-11-22T05:51:39;98311.06;;;18.74;60.79
56414;BME280;42318;48.452;19.526;2023-11-22T05:54:39;98327.91;;;18.76;60.39
56414;BME280;42318;48.452;19.526;2023-11-22T05:57:40;98331.44;;;18.76;61.16
56414;BME280;42318;48.452;19.526;2023-11-22T06:00:45;98324.88;;;18.72;61.47
56414;BME280;42318;48.452;19.526;2023-11-22T06:03:46;98338.19;;;18.74;61.65
56414;BME280;42318;48.452;19.526;2023-11-22T06:06:47;98340.66;;;18.75;61.44
56414;BME280;42318;48.452;19.526;2023-11-22T06:09:48;98349.38;;;18.77;61.84
56414;BME280;42318;48.452;19.526;2023-11-22T06:12:49;98356.69;;;18.77;62.05
56414;BME280;42318;48.452;19.526;2023-11-22T06:15:49;98353.16;;;18.76;61.68
56414;BME280;42318;48.452;19.526;2023-11-22T06:18:50;98365.34;;;18.74;61.83
56414;BME280;42318;48.452;19.526;2023-11-22T06:21:51;98359.09;;;18.73;61.93
56414;BME280;42318;48.452;19.526;2023-11-22T06:24:52;98369.44;;;18.76;61.74
56414;BME280;42318;48.452;19.526;2023-11-22T06:27:53;98374.88;;;18.76;62.21
56414;BME280;42318;48.452;19.526;2023-11-22T06:30:53;98370.28;;;18.77;62.14
56414;BME280;42318;48.452;19.526;2023-11-22T06:33:54;98370.28;;;18.77;61.82
56414;BME280;42318;48.452;19.526;2023-11-22T06:36:55;98370.28;;;18.77;61.94
56414;BME280;42318;48.452;19.526;2023-11-22T06:39:56;98372.97;;;18.77;62.03
56414;BME280;42318;48.452;19.526;2023-11-22T06:42:58;98368.84;;;18.58;55.66
56414;BME280;42318;48.452;19.526;2023-11-22T06:45:58;98381.81;;;18.67;60.30
56414;BME280;42318;48.452;19.526;2023-11-22T06:49:02;98396.28;;;18.73;60.72
56414;BME280;42318;48.452;19.526;2023-11-22T06:52:02;98393.38;;;18.79;61.25
56414;BME280;42318;48.452;19.526;2023-11-22T06:55:09;98392.38;;;18.86;61.13
56414;BME280;42318;48.452;19.526;2023-11-22T06:58:10;98397.06;;;18.90;61.13
56414;BME280;42318;48.452;19.526;2023-11-22T07:01:11;98412.00;;;18.93;60.96
56414;BME280;42318;48.452;19.526;2023-11-22T07:04:12;98404.44;;;18.95;61.16
56414;BME280;42318;48.452;19.526;2023-11-22T07:07:13;98402.69;;;19.05;61.12
56414;BME280;42318;48.452;19.526;2023-11-22T07:10:15;98417.75;;;19.13;61.10
56414;BME280;42318;48.452;19.526;2023-11-22T07:13:16;98419.69;;;19.18;61.04
56414;BME280;42318;48.452;19.526;2023-11-22T07:16:16;98418.69;;;19.24;61.01
56414;BME280;42318;48.452;19.526;2023-11-22T07:19:19;98422.28;;;19.29;61.00
56414;BME280;42318;48.452;19.526;2023-11-22T07:22:20;98425.88;;;19.35;60.74
56414;BME280;42318;48.452;19.526;2023-11-22T07:25:23;98420.56;;;19.45;60.49
56414;BME280;42318;48.452;19.526;2023-11-22T07:28:25;98417.47;;;19.53;60.69
56414;BME280;42318;48.452;19.526;2023-11-22T07:31:26;98409.38;;;19.58;60.29
56414;BME280;42318;48.452;19.526;2023-11-22T07:34:27;98427.75;;;19.73;60.18
56414;BME280;42318;48.452;19.526;2023-11-22T07:37:28;98421.34;;;19.84;59.90
56414;BME280;42318;48.452;19.526;2023-11-22T07:40:29;98418.97;;;19.93;59.84
56414;BME280;42318;48.452;19.526;2023-11-22T07:43:30;98425.63;;;20.02;59.60
56414;BME280;42318;48.452;19.526;2023-11-22T07:46:30;98430.28;;;20.06;59.57
56414;BME280;42318;48.452;19.526;2023-11-22T07:49:31;98423.75;;;20.07;59.64
56414;BME280;42318;48.452;19.526;2023-11-22T07:52:32;98433.41;;;20.20;59.59
56414;BME280;42318;48.452;19.526;2023-11-22T07:55:33;98426.00;;;20.16;59.49
56414;BME280;42318;48.452;19.526;2023-11-22T07:58:35;98434.50;;;20.24;59.06
56414;BME280;42318;48.452;19.526;2023-11-22T08:01:36;98434.84;;;20.33;59.25
56414;BME280;42318;48.452;19.526;2023-11-22T08:04:37;98436.56;;;20.39;58.94
56414;BME280;42318;48.452;19.526;2023-11-22T08:07:38;98429.84;;;20.47;58.99
56414;BME280;42318;48.452;19.526;2023-11-22T08:10:41;98439.13;;;20.51;58.75
56414;BME280;42318;48.452;19.526;2023-11-22T08:13:43;98442.97;;;20.55;58.92
56414;BME280;42318;48.452;19.526;2023-11-22T08:16:45;98440.75;;;20.47;58.89
56414;BME280;42318;48.452;19.526;2023-11-22T08:19:46;98448.16;;;20.56;58.84
56414;BME280;42318;48.452;19.526;2023-11-22T08:22:48;98457.44;;;20.60;58.75
56414;BME280;42318;48.452;19.526;2023-11-22T08:25:51;98464.25;;;20.58;58.74
56414;BME280;42318;48.452;19.526;2023-11-22T08:28:53;98481.56;;;20.47;58.96
56414;BME280;42318;48.452;19.526;2023-11-22T08:31:54;98474.22;;;20.47;58.69
56414;BME280;42318;48.452;19.526;2023-11-22T08:34:54;98480.44;;;20.43;59.21
56414;BME280;42318;48.452;19.526;2023-11-22T08:37:55;98493.94;;;20.37;59.37
56414;BME280;42318;48.452;19.526;2023-11-22T08:40:57;98488.97;;;20.29;59.40
56414;BME280;42318;48.452;19.526;2023-11-22T08:44:00;98495.25;;;20.30;59.47
56414;BME280;42318;48.452;19.526;2023-11-22T08:47:01;98504.72;;;20.27;59.65
56414;BME280;42318;48.452;19.526;2023-11-22T08:50:02;98494.06;;;20.21;59.69
56414;BME280;42318;48.452;19.526;2023-11-22T08:53:03;98509.81;;;20.19;59.86
56414;BME280;42318;48.452;19.526;2023-11-22T08:56:06;98513.56;;;20.13;59.90
56414;BME280;42318;48.452;19.526;2023-11-22T08:59:09;98522.50;;;20.08;59.85
56414;BME280;42318;48.452;19.526;2023-11-22T09:02:10;98523.25;;;20.03;58.68
56414;BME280;42318;48.452;19.526;2023-11-22T09:05:12;98532.75;;;20.01;59.39
56414;BME280;42318;48.452;19.526;2023-11-22T09:08:13;98534.09;;;19.98;59.79
56414;BME280;42318;48.452;19.526;2023-11-22T09:11:15;98536.81;;;19.98;60.17
56414;BME280;42318;48.452;19.526;2023-11-22T09:14:17;98538.72;;;19.98;60.00
56414;BME280;42318;48.452;19.526;2023-11-22T09:17:19;98547.94;;;19.97;60.13
56414;BME280;42318;48.452;19.526;2023-11-22T09:20:21;98536.41;;;19.90;60.25
56414;BME280;42318;48.452;19.526;2023-11-22T09:23:21;98547.03;;;19.91;60.37
56414;BME280;42318;48.452;19.526;2023-11-22T09:26:22;98544.88;;;19.93;60.38
56414;BME280;42318;48.452;19.526;2023-11-22T09:29:23;98550.56;;;19.92;60.41
56414;BME280;42318;48.452;19.526;2023-11-22T09:32:24;98548.94;;;19.91;60.43
56414;BME280;42318;48.452;19.526;2023-11-22T09:35:24;98552.72;;;19.90;60.79
56414;BME280;42318;48.452;19.526;2023-11-22T09:38:26;98551.66;;;19.91;60.35
56414;BME280;42318;48.452;19.526;2023-11-22T09:41:26;98548.34;;;19.89;60.53
56414;BME280;42318;48.452;19.526;2023-11-22T09:44:29;98551.91;;;19.89;60.42
56414;BME280;42318;48.452;19.526;2023-11-22T09:47:32;98546.72;;;19.88;60.71
56414;BME280;42318;48.452;19.526;2023-11-22T09:50:41;98544.56;;;19.90;60.66
56414;BME280;42318;48.452;19.526;2023-11-22T09:53:52;98538.00;;;19.86;60.72
56414;BME280;42318;48.452;19.526;2023-11-22T09:56:57;98535.84;;;19.88;60.84
56414;BME280;42318;48.452;19.526;2023-11-22T10:00:01;98547.53;;;19.88;60.67
56414;BME280;42318;48.452;19.526;2023-11-22T10:03:02;98558.66;;;19.87;60.54
56414;BME280;42318;48.452;19.526;2023-11-22T10:06:04;98549.44;;;19.88;60.47
56414;BME280;42318;48.452;19.526;2023-11-22T10:09:05;98553.78;;;19.89;60.64
56414;BME280;42318;48.452;19.526;2023-11-22T10:12:08;98560.31;;;19.88;60.77
56414;BME280;42318;48.452;19.526;2023-11-22T10:15:13;98564.09;;;19.87;60.66
56414;BME280;42318;48.452;19.526;2023-11-22T10:18:14;98567.66;;;19.87;60.50
56414;BME280;42318;48.452;19.526;2023-11-22T10:21:27;98576.63;;;19.88;60.60
56414;BME280;42318;48.452;19.526;2023-11-22T10:24:31;98571.44;;;19.86;60.69
56414;BME280;42318;48.452;19.526;2023-11-22T10:27:35;98575.81;;;19.87;60.48
56414;BME280;42318;48.452;19.526;2023-11-22T10:30:36;98562.47;;;19.86;60.80
56414;BME280;42318;48.452;19.526;2023-11-22T10:33:40;98558.66;;;19.87;60.41
56414;BME280;42318;48.452;19.526;2023-11-22T10:36:42;98560.31;;;19.88;60.58
56414;BME280;42318;48.452;19.526;2023-11-22T10:39:50;98552.41;;;19.86;60.84
56414;BME280;42318;48.452;19.526;2023-11-22T10:42:51;98565.75;;;19.88;60.63
56414;BME280;42318;48.452;19.526;2023-11-22T10:45:53;98574.97;;;19.87;60.59
56414;BME280;42318;48.452;19.526;2023-11-22T10:48:55;98577.69;;;19.87;60.72
56414;BME280;42318;48.452;19.526;2023-11-22T10:51:57;98570.38;;;19.87;60.60
56414;BME280;42318;48.452;19.526;2023-11-22T10:55:03;98574.97;;;19.87;60.83
56414;BME280;42318;48.452;19.526;2023-11-22T10:58:06;98586.19;;;19.90;60.43
56414;BME280;42318;48.452;19.526;2023-11-22T11:01:07;98592.69;;;19.89;60.83
56414;BME280;42318;48.452;19.526;2023-11-22T11:04:09;98595.97;;;19.91;60.59
56414;BME280;42318;48.452;19.526;2023-11-22T11:07:12;98591.38;;;19.92;61.02
56414;BME280;42318;48.452;19.526;2023-11-22T11:10:17;98604.97;;;19.92;61.04
56414;BME280;42318;48.452;19.526;2023-11-22T11:13:19;98602.50;;;19.90;61.20
56414;BME280;42318;48.452;19.526;2023-11-22T11:16:21;98599.78;;;19.90;60.94
56414;BME280;42318;48.452;19.526;2023-11-22T11:19:22;98608.19;;;19.89;61.30
56414;BME280;42318;48.452;19.526;2023-11-22T11:22:24;98608.69;;;19.86;61.31
56414;BME280;42318;48.452;19.526;2023-11-22T11:25:25;98607.88;;;19.85;61.02
56414;BME280;42318;48.452;19.526;2023-11-22T11:28:26;98596.09;;;19.80;61.31
56414;BME280;42318;48.452;19.526;2023-11-22T11:31:38;98619.56;;;19.86;61.13
56414;BME280;42318;48.452;19.526;2023-11-22T11:34:47;98626.59;;;19.82;61.42
56414;BME280;42318;48.452;19.526;2023-11-22T11:37:59;98637.28;;;19.88;61.59
56414;BME280;42318;48.452;19.526;2023-11-22T11:41:11;98631.84;;;19.88;61.94
56414;BME280;42318;48.452;19.526;2023-11-22T11:44:13;98631.00;;;19.88;62.17
56414;BME280;42318;48.452;19.526;2023-11-22T11:47:14;98636.50;;;19.93;62.42
56414;BME280;42318;48.452;19.526;2023-11-22T11:50:14;98636.31;;;19.77;55.59
56414;BME280;42318;48.452;19.526;2023-11-22T11:53:18;98636.94;;;19.85;61.69
56414;BME280;42318;48.452;19.526;2023-11-22T11:56:19;98651.44;;;19.90;62.59
56414;BME280;42318;48.452;19.526;2023-11-22T11:59:21;98653.09;;;19.91;62.80
56414;BME280;42318;48.452;19.526;2023-11-22T12:02:22;98662.63;;;19.94;62.75
56414;BME280;42318;48.452;19.526;2023-11-22T12:05:22;98675.19;;;19.95;63.07
56414;BME280;42318;48.452;19.526;2023-11-22T12:08:23;98667.59;;;19.97;63.04
56414;BME280;42318;48.452;19.526;2023-11-22T12:11:24;98658.38;;;19.98;63.32
56414;BME280;42318;48.452;19.526;2023-11-22T12:14:24;98667.09;;;20.00;63.48
56414;BME280;42318;48.452;19.526;2023-11-22T12:17:26;98668.75;;;20.01;63.10
56414;BME280;42318;48.452;19.526;2023-11-22T12:20:30;98662.47;;;20.00;63.16
56414;BME280;42318;48.452;19.526;2023-11-22T12:23:34;98659.50;;;20.02;63.27
56414;BME280;42318;48.452;19.526;2023-11-22T12:26:34;98664.94;;;20.02;63.75
56414;BME280;42318;48.452;19.526;2023-11-22T12:29:39;98657.28;;;19.99;63.75
56414;BME280;42318;48.452;19.526;2023-11-22T12:32:41;98672.03;;;20.03;63.64
56414;BME280;42318;48.452;19.526;2023-11-22T12:35:43;98683.50;;;20.05;63.45
56414;BME280;42318;48.452;19.526;2023-11-22T12:38:44;98668.44;;;19.47;48.71
56414;BME280;42318;48.452;19.526;2023-11-22T12:41:52;98668.34;;;19.08;46.53
56414;BME280;42318;48.452;19.526;2023-11-22T12:44:53;98679.72;;;19.22;53.75
56414;BME280;42318;48.452;19.526;2023-11-22T12:47:55;98679.13;;;19.37;56.67
56414;BME280;42318;48.452;19.526;2023-11-22T12:51:00;98688.03;;;19.49;58.50
56414;BME280;42318;48.452;19.526;2023-11-22T12:54:03;98695.25;;;19.55;59.20
56414;BME280;42318;48.452;19.526;2023-11-22T12:57:10;98689.31;;;19.58;59.60
56414;BME280;42318;48.452;19.526;2023-11-22T13:00:13;98694.50;;;19.60;60.11
56414;BME280;42318;48.452;19.526;2023-11-22T13:03:14;98692.38;;;19.62;60.00
56414;BME280;42318;48.452;19.526;2023-11-22T13:06:15;98683.63;;;19.60;60.20
56414;BME280;42318;48.452;19.526;2023-11-22T13:09:18;98695.91;;;19.62;60.27
56414;BME280;42318;48.452;19.526;2023-11-22T13:12:18;98694.81;;;19.63;60.29
56414;BME280;42318;48.452;19.526;2023-11-22T13:15:20;98692.59;;;19.60;60.48
56414;BME280;42318;48.452;19.526;2023-11-22T13:18:24;98695.31;;;19.60;60.71
56414;BME280;42318;48.452;19.526;2023-11-22T13:21:26;98693.69;;;19.59;60.74
56414;BME280;42318;48.452;19.526;2023-11-22T13:24:27;98705.63;;;19.58;60.60
56414;BME280;42318;48.452;19.526;2023-11-22T13:27:28;98712.72;;;19.59;60.73
56414;BME280;42318;48.452;19.526;2023-11-22T13:30:29;98715.91;;;19.56;60.62
56414;BME280;42318;48.452;19.526;2023-11-22T13:33:29;98718.06;;;19.54;60.85
56414;BME280;42318;48.452;19.526;2023-11-22T13:36:30;98708.47;;;19.52;60.76
56414;BME280;42318;48.452;19.526;2023-11-22T13:39:32;98715.59;;;19.53;60.85
56414;BME280;42318;48.452;19.526;2023-11-22T13:42:34;98722.69;;;19.54;61.02
56414;BME280;42318;48.452;19.526;2023-11-22T13:45:37;98725.59;;;19.52;61.12
56414;BME280;42318;48.452;19.526;2023-11-22T13:48:41;98731.03;;;19.52;61.03
56414;BME280;42318;48.452;19.526;2023-11-22T13:51:42;98743.00;;;19.51;60.96
56414;BME280;42318;48.452;19.526;2023-11-22T13:54:42;98740.72;;;19.48;61.04
56414;BME280;42318;48.452;19.526;2023-11-22T13:57:43;98751.97;;;19.52;60.85
56414;BME280;42318;48.452;19.526;2023-11-22T14:00:44;98755.72;;;19.51;60.92
56414;BME280;42318;48.452;19.526;2023-11-22T14:03:47;98733.66;;;19.47;60.80
56414;BME280;42318;48.452;19.526;2023-11-22T14:06:48;98749.47;;;19.50;60.78
56414;BME280;42318;48.452;19.526;2023-11-22T14:09:49;98751.03;;;19.46;60.75
56414;BME280;42318;48.452;19.526;2023-11-22T14:12:51;98746.41;;;19.46;61.01
56414;BME280;42318;48.452;19.526;2023-11-22T14:15:52;98751.28;;;19.44;60.98
56414;BME280;42318;48.452;19.526;2023-11-22T14:18:52;98752.91;;;19.45;61.07
56414;BME280;42318;48.452;19.526;2023-11-22T14:21:53;98767.56;;;19.44;60.88
56414;BME280;42318;48.452;19.526;2023-11-22T14:24:54;98770.28;;;19.44;60.82
56414;BME280;42318;48.452;19.526;2023-11-22T14:27:55;98773.25;;;19.43;60.94
56414;BME280;42318;48.452;19.526;2023-11-22T14:30:57;98772.34;;;19.37;61.12
56414;BME280;42318;48.452;19.526;2023-11-22T14:33:58;98771.03;;;19.40;60.90
56414;BME280;42318;48.452;19.526;2023-11-22T14:36:59;98774.00;;;19.38;61.08
56414;BME280;42318;48.452;19.526;2023-11-22T14:40:00;98775.06;;;19.37;60.81
56414;BME280;42318;48.452;19.526;2023-11-22T14:43:01;98778.59;;;19.38;61.28
56414;BME280;42318;48.452;19.526;2023-11-22T14:46:03;98785.09;;;19.37;61.13
56414;BME280;42318;48.452;19.526;2023-11-22T14:49:06;98784.53;;;19.35;60.44
56414;BME280;42318;48.452;19.526;2023-11-22T14:52:08;98783.94;;;19.33;60.74
56414;BME280;42318;48.452;19.526;2023-11-22T14:55:12;98785.00;;;19.32;60.68
56414;BME280;42318;48.452;19.526;2023-11-22T14:58:12;98778.19;;;19.29;60.63
56414;BME280;42318;48.452;19.526;2023-11-22T15:01:13;98781.97;;;19.28;60.76
56414;BME280;42318;48.452;19.526;2023-11-22T15:04:14;98790.94;;;19.29;60.74
56414;BME280;42318;48.452;19.526;2023-11-22T15:07:16;98783.84;;;19.28;60.72
56414;BME280;42318;48.452;19.526;2023-11-22T15:10:16;98788.22;;;19.29;60.96
56414;BME280;42318;48.452;19.526;2023-11-22T15:13:17;98798.50;;;19.27;60.95
56414;BME280;42318;48.452;19.526;2023-11-22T15:16:17;98813.16;;;19.26;60.75
56414;BME280;42318;48.452;19.526;2023-11-22T15:19:19;98818.59;;;19.26;60.82
56414;BME280;42318;48.452;19.526;2023-11-22T15:22:22;98817.78;;;19.25;61.25
56414;BME280;42318;48.452;19.526;2023-11-22T15:25:22;98819.66;;;19.25;61.12
56414;BME280;42318;48.452;19.526;2023-11-22T15:28:23;98827.81;;;19.25;60.99
56414;BME280;42318;48.452;19.526;2023-11-22T15:31:23;98834.31;;;19.24;61.00
56414;BME280;42318;48.452;19.526;2023-11-22T15:34:24;98838.69;;;19.25;61.18
56414;BME280;42318;48.452;19.526;2023-11-22T15:37:25;98838.34;;;19.21;61.04
56414;BME280;42318;48.452;19.526;2023-11-22T15:40:25;98833.72;;;19.22;60.92
56414;BME280;42318;48.452;19.526;2023-11-22T15:43:26;98836.44;;;19.22;61.24
56414;BME280;42318;48.452;19.526;2023-11-22T15:46:28;98842.94;;;19.21;60.66
56414;BME280;42318;48.452;19.526;2023-11-22T15:49:29;98852.75;;;19.22;60.83